createdAt,value
2018-12-16T00:01:00.012Z,68.63
2018-12-16T00:03:40.496Z,78.30
2018-12-16T00:06:46.638Z,69.23
2018-12-16T00:09:25.123Z,51.23
2018-12-16T00:12:06.181Z,60.47
2018-12-16T00:14:44.817Z,61.47
2018-12-16T00:21:04.779Z,59.37
2018-12-16T00:23:45.690Z,57.03
2018-12-16T00:30:09.088Z,71.30
2018-12-16T00:32:52.567Z,65.23
2018-12-16T00:35:58.023Z,56.23
2018-12-16T00:38:37.115Z,52.07
2018-12-16T00:41:10.225Z,56.10
2018-12-16T00:44:10.733Z,53.53
2018-12-16T00:50:37.800Z,43.30
2018-12-16T00:53:22.429Z,51.47
2018-12-16T01:00:06.535Z,46.63
2018-12-16T01:02:47.771Z,43.47
2018-12-16T01:05:25.707Z,53.60
2018-12-16T01:08:19.995Z,55.10
2018-12-16T01:11:01.912Z,55.07
2018-12-16T01:13:32.627Z,53.93
2018-12-16T01:23:40.863Z,58.67
2018-12-16T01:45:43.146Z,53.37
2018-12-16T01:49:04.107Z,58.80
2018-12-16T01:53:15.952Z,65.23
2018-12-16T02:14:30.156Z,74.23
2018-12-16T02:17:28.192Z,79.70
2018-12-16T02:20:07.967Z,78.73
2018-12-16T02:26:21.425Z,72.50
2018-12-16T02:29:12.387Z,66.90
2018-12-16T02:35:55.937Z,49.70
2018-12-16T02:42:47.609Z,56.93
2018-12-16T02:46:04.840Z,51.77
2018-12-16T02:48:46.397Z,54.63
2018-12-16T02:51:24.510Z,63.50
2018-12-16T02:54:05.439Z,56.47
2018-12-16T02:56:46.272Z,55.47
2018-12-16T02:59:24.350Z,42.57
2018-12-16T03:02:03.963Z,52.70
2018-12-16T03:15:59.226Z,38.70
2018-12-16T03:18:38.228Z,33.30
2018-12-16T03:21:42.505Z,33.80
2018-12-16T03:24:24.039Z,37.87
2018-12-16T03:31:01.448Z,35.67
2018-12-16T03:33:39.778Z,36.67
2018-12-16T03:36:21.404Z,38.47
2018-12-16T03:38:59.127Z,38.60
2018-12-16T03:41:38.255Z,40.90
2018-12-16T03:44:16.680Z,38.23
2018-12-16T03:46:58.352Z,49.43
2018-12-16T03:49:29.046Z,35.47
2018-12-16T03:51:59.794Z,44.20
2018-12-16T03:54:41.097Z,49.83
2018-12-16T03:57:18.997Z,52.20
2018-12-16T03:59:49.744Z,42.67
2018-12-16T04:02:27.525Z,46.73
2018-12-16T04:08:42.845Z,52.47
2018-12-16T04:11:27.266Z,42.33
2018-12-16T04:14:05.894Z,43.33
2018-12-16T04:16:46.118Z,36.80
2018-12-16T04:19:23.919Z,40.33
2018-12-16T04:29:29.435Z,50.17
2018-12-16T05:02:40.390Z,53.63
2018-12-16T05:05:51.735Z,59.83
2018-12-16T06:01:15.774Z,95.17
2018-12-16T06:03:55.359Z,66.60
2018-12-16T06:06:49.937Z,76.17
2018-12-16T06:09:31.957Z,81.37
2018-12-16T06:15:25.235Z,61.23
2018-12-16T06:18:16.150Z,71.87
2018-12-16T06:20:46.897Z,78.77
2018-12-16T06:23:18.325Z,65.13
2018-12-16T06:26:28.665Z,68.17
2018-12-16T06:32:51.164Z,59.57
2018-12-16T06:36:04.847Z,63.93
2018-12-16T06:38:48.508Z,55.40
2018-12-16T06:41:19.337Z,47.37
2018-12-16T06:43:51.055Z,49.67
2018-12-16T06:46:22.889Z,50.87
2018-12-16T06:48:55.188Z,52.60
2018-12-16T06:51:26.065Z,46.53
2018-12-16T06:54:02.390Z,56.80
2018-12-16T06:56:31.315Z,68.27
2018-12-16T06:59:06.003Z,52.27
2018-12-16T07:01:36.825Z,73.27
2018-12-16T07:04:07.829Z,63.73
2018-12-16T07:06:53.168Z,53.77
2018-12-16T07:09:28.995Z,78.77
2018-12-16T07:11:59.775Z,76.63
2018-12-16T07:14:31.406Z,87.10
2018-12-16T07:17:02.084Z,70.50
2018-12-16T07:19:32.776Z,65.00
2018-12-16T07:22:06.314Z,59.70
2018-12-16T07:27:29.012Z,46.00
2018-12-16T07:30:00.966Z,55.67
2018-12-16T07:32:31.830Z,72.77
2018-12-16T07:35:03.217Z,69.67
2018-12-16T07:37:33.935Z,62.47
2018-12-16T07:40:05.573Z,55.57
2018-12-16T07:42:36.950Z,60.37
2018-12-16T07:45:15.788Z,52.93
2018-12-16T07:47:48.210Z,49.30
2018-12-16T07:50:22.248Z,72.13
2018-12-16T07:56:15.407Z,58.30
2018-12-16T07:58:53.279Z,76.43
2018-12-16T08:01:36.139Z,66.07
2018-12-16T08:04:07.035Z,78.33
2018-12-16T08:06:37.868Z,61.70
2018-12-16T08:09:08.963Z,72.13
2018-12-16T08:11:42.174Z,59.27
2018-12-16T08:14:15.889Z,77.20
2018-12-16T08:16:50.808Z,92.27
2018-12-16T08:19:25.896Z,76.27
2018-12-16T08:21:59.247Z,73.63
2018-12-16T08:24:31.830Z,82.50
2018-12-16T08:29:45.179Z,82.57
2018-12-16T08:32:26.951Z,90.03
2018-12-16T08:34:59.321Z,102.37
2018-12-16T08:37:31.090Z,76.57
2018-12-16T08:40:02.164Z,60.67
2018-12-16T08:42:38.619Z,76.40
2018-12-16T08:45:10.759Z,79.17
2018-12-16T08:47:49.033Z,86.83
2018-12-16T08:50:34.222Z,105.33
2018-12-16T08:53:14.396Z,80.13
2018-12-16T08:58:23.058Z,98.87
2018-12-16T09:00:54.433Z,66.90
2018-12-16T09:03:27.972Z,101.87
2018-12-16T09:06:03.043Z,108.40
2018-12-16T09:08:33.874Z,113.70
2018-12-16T09:11:10.314Z,82.37
2018-12-16T09:13:42.203Z,84.13
2018-12-16T09:16:12.967Z,91.80
2018-12-16T09:18:48.380Z,84.87
2018-12-16T09:21:21.034Z,94.57
2018-12-16T09:24:26.059Z,114.37
2018-12-16T09:27:04.802Z,82.63
2018-12-16T09:29:35.640Z,90.03
2018-12-16T09:32:18.407Z,83.27
2018-12-16T09:34:54.646Z,76.17
2018-12-16T09:37:25.433Z,83.53
2018-12-16T09:39:56.894Z,122.63
2018-12-16T09:42:27.699Z,115.80
2018-12-16T09:45:01.245Z,118.47
2018-12-16T09:47:34.536Z,131.83
2018-12-16T09:50:05.551Z,106.10
2018-12-16T09:52:36.346Z,97.13
2018-12-16T09:55:11.405Z,98.57
2018-12-16T09:57:43.023Z,91.97
2018-12-16T10:00:14.734Z,80.23
2018-12-16T10:02:46.516Z,100.00
2018-12-16T10:05:18.000Z,83.13
2018-12-16T10:07:50.127Z,117.37
2018-12-16T10:10:26.035Z,101.57
2018-12-16T10:12:56.768Z,114.23
2018-12-16T10:15:27.391Z,77.83
2018-12-16T10:17:58.049Z,158.17
2018-12-16T10:20:35.118Z,126.57
2018-12-16T10:23:09.346Z,123.30
2018-12-16T10:25:40.077Z,114.63
2018-12-16T10:28:10.726Z,92.10
2018-12-16T10:30:41.437Z,114.40
2018-12-16T10:33:12.233Z,88.77
2018-12-16T10:35:42.966Z,83.50
2018-12-16T10:38:13.573Z,120.67
2018-12-16T10:40:44.274Z,122.77
2018-12-16T10:43:14.954Z,112.73
2018-12-16T10:45:45.609Z,103.73
2018-12-16T10:48:16.342Z,98.57
2018-12-16T10:50:46.926Z,103.17
2018-12-16T10:53:17.954Z,114.17
2018-12-16T10:55:48.666Z,108.33
2018-12-16T10:58:19.453Z,119.17
2018-12-16T11:00:55.115Z,116.57
2018-12-16T11:03:26.265Z,101.37
2018-12-16T11:05:56.987Z,96.60
2018-12-16T11:12:43.556Z,112.90
2018-12-16T11:15:15.695Z,104.73
2018-12-16T11:17:46.493Z,107.67
2018-12-16T11:23:39.782Z,136.83
2018-12-16T11:26:12.070Z,111.10
2018-12-16T11:28:46.381Z,120.77
2018-12-16T11:31:17.187Z,115.07
2018-12-16T11:33:47.896Z,91.97
2018-12-16T11:36:18.622Z,116.97
2018-12-16T11:38:49.376Z,112.63
2018-12-16T11:41:20.088Z,110.50
2018-12-16T11:43:51.878Z,99.40
2018-12-16T11:46:22.621Z,118.03
2018-12-16T11:48:53.296Z,103.37
2018-12-16T11:51:24.149Z,105.10
2018-12-16T11:53:54.866Z,112.67
2018-12-16T11:56:25.699Z,112.03
2018-12-16T11:59:00.983Z,119.27
2018-12-16T12:01:31.954Z,100.30
2018-12-16T12:04:07.388Z,93.43
2018-12-16T12:07:13.482Z,95.43
2018-12-16T12:09:44.239Z,93.10
2018-12-16T12:12:18.000Z,92.63
2018-12-16T12:14:50.885Z,125.97
2018-12-16T12:17:21.564Z,104.70
2018-12-16T12:19:52.366Z,116.73
2018-12-16T12:22:23.109Z,91.67
2018-12-16T12:24:53.908Z,105.97
2018-12-16T12:27:24.724Z,99.03
2018-12-16T12:29:55.389Z,101.50
2018-12-16T12:32:26.095Z,94.30
2018-12-16T12:34:57.173Z,87.63
2018-12-16T12:37:28.991Z,117.63
2018-12-16T12:39:59.735Z,133.97
2018-12-16T12:42:30.482Z,90.63
2018-12-16T12:45:01.340Z,89.83
2018-12-16T12:47:40.956Z,108.00
2018-12-16T12:50:13.942Z,135.30
2018-12-16T12:52:52.244Z,118.33
2018-12-16T12:55:26.769Z,131.37
2018-12-16T12:57:56.560Z,144.30
2018-12-16T13:00:56.893Z,112.93
2018-12-16T13:07:29.406Z,130.90
2018-12-16T13:10:18.982Z,116.47
2018-12-16T13:16:46.742Z,138.13
2018-12-16T13:19:38.422Z,111.30
2018-12-16T13:22:45.695Z,107.13
2018-12-16T13:25:36.318Z,115.97
2018-12-16T13:31:16.875Z,120.60
2018-12-16T13:34:21.314Z,120.17
2018-12-16T13:37:01.908Z,122.13
2018-12-16T13:42:36.647Z,124.77
2018-12-16T13:52:31.825Z,140.87
2018-12-16T13:55:24.894Z,151.23
2018-12-16T14:08:23.266Z,139.50
2018-12-16T14:11:15.112Z,147.40
2018-12-16T14:27:01.951Z,149.07
2018-12-16T14:30:19.916Z,175.30
2018-12-16T14:33:04.655Z,148.63
2018-12-16T14:35:50.578Z,147.30
2018-12-16T14:38:40.520Z,163.90
2018-12-16T14:41:50.071Z,142.03
2018-12-16T14:44:54.973Z,122.57
2018-12-16T14:47:47.167Z,157.90
2018-12-16T14:50:45.111Z,148.87
2018-12-16T14:53:39.875Z,143.73
2018-12-16T14:56:33.165Z,116.90
2018-12-16T14:59:17.542Z,172.50
2018-12-16T15:02:05.627Z,152.47
2018-12-16T15:04:50.323Z,135.63
2018-12-16T15:07:41.605Z,160.90
2018-12-16T15:10:37.285Z,149.10
2018-12-16T15:13:31.750Z,149.77
2018-12-16T15:16:10.379Z,151.43
2018-12-16T15:19:28.371Z,126.10
2018-12-16T15:22:14.272Z,144.90
2018-12-16T15:24:58.886Z,118.53
2018-12-16T15:27:29.615Z,149.57
2018-12-16T15:30:11.880Z,157.47
2018-12-16T15:32:42.659Z,145.40
2018-12-16T15:35:59.109Z,142.37
2018-12-16T15:38:33.195Z,138.47
2018-12-16T15:41:16.153Z,125.27
2018-12-16T15:44:00.723Z,115.27
2018-12-16T15:46:39.531Z,131.97
2018-12-16T15:49:14.025Z,144.70
2018-12-16T15:51:52.757Z,138.33
2018-12-16T15:58:13.437Z,152.10
2018-12-16T16:01:19.324Z,141.87
2018-12-16T16:07:42.256Z,120.00
2018-12-16T16:13:34.247Z,124.10
2018-12-16T16:16:04.988Z,133.10
2018-12-16T16:18:35.835Z,118.97
2018-12-16T16:21:06.534Z,112.27
2018-12-16T16:23:37.252Z,124.33
2018-12-16T16:26:22.231Z,131.00
2018-12-16T16:28:52.944Z,124.37
2018-12-16T16:32:00.489Z,115.60
2018-12-16T16:34:39.399Z,134.90
2018-12-16T16:37:13.980Z,123.53
2018-12-16T16:39:51.732Z,128.07
2018-12-16T16:42:29.533Z,120.67
2018-12-16T16:45:07.980Z,119.10
2018-12-16T16:47:39.745Z,135.57
2018-12-16T16:50:52.131Z,119.43
2018-12-16T16:53:30.162Z,118.20
2018-12-16T16:56:47.281Z,146.80
2018-12-16T16:59:25.564Z,151.97
2018-12-16T17:02:04.181Z,150.53
2018-12-16T17:04:42.832Z,151.83
2018-12-16T17:07:42.671Z,130.20
2018-12-16T17:10:17.160Z,156.47
2018-12-16T17:13:09.923Z,109.83
2018-12-16T17:16:10.383Z,108.93
2018-12-16T17:18:49.157Z,103.80
2018-12-16T17:21:27.748Z,133.20
2018-12-16T17:23:58.908Z,123.97
2018-12-16T17:26:37.008Z,133.83
2018-12-16T17:29:07.817Z,131.47
2018-12-16T17:31:45.608Z,139.57
2018-12-16T17:34:16.462Z,124.83
2018-12-16T17:37:33.438Z,143.77
2018-12-16T17:40:04.368Z,132.73
2018-12-16T17:42:42.387Z,135.67
2018-12-16T17:45:29.866Z,112.33
2018-12-16T17:48:07.728Z,122.63
2018-12-16T17:54:52.568Z,129.10
2018-12-16T17:57:31.409Z,140.67
2018-12-16T18:00:02.308Z,120.63
2018-12-16T18:02:32.997Z,125.70
2018-12-16T18:05:03.776Z,116.37
2018-12-16T18:07:34.552Z,131.17
2018-12-16T18:10:05.766Z,127.70
2018-12-16T18:12:36.532Z,129.60
2018-12-16T18:15:08.594Z,100.43
2018-12-16T18:17:59.819Z,108.07
2018-12-16T18:20:30.602Z,94.10
2018-12-16T18:23:01.203Z,78.63
2018-12-16T18:25:31.929Z,92.00
2018-12-16T18:28:02.537Z,82.13
2018-12-16T18:30:33.203Z,100.80
2018-12-16T18:33:42.290Z,85.87
2018-12-16T18:36:27.295Z,103.80
2018-12-16T18:38:58.107Z,108.10
2018-12-16T18:41:28.840Z,88.03
2018-12-16T18:43:59.706Z,94.97
2018-12-16T18:46:30.391Z,78.47
2018-12-16T18:49:01.182Z,94.10
2018-12-16T18:51:31.809Z,85.13
2018-12-16T18:54:03.659Z,80.60
2018-12-16T18:56:34.444Z,84.97
2018-12-16T18:59:05.343Z,68.13
2018-12-16T19:01:36.256Z,54.93
2018-12-16T19:04:06.998Z,64.00
2018-12-16T19:06:38.436Z,70.73
2018-12-16T19:09:09.640Z,74.63
2018-12-16T19:11:42.406Z,82.70
2018-12-16T19:14:13.097Z,67.63
2018-12-16T19:16:43.811Z,66.43
2018-12-16T19:19:15.529Z,50.33
2018-12-16T19:21:46.302Z,64.07
2018-12-16T19:24:18.573Z,74.03
2018-12-16T19:26:49.343Z,74.63
2018-12-16T19:29:20.030Z,79.77
2018-12-16T19:31:50.654Z,58.33
2018-12-16T19:34:43.950Z,68.80
2018-12-16T19:37:14.722Z,67.53
2018-12-16T19:39:45.499Z,64.57
2018-12-16T19:42:16.257Z,55.23
2018-12-16T19:44:46.986Z,65.37
2018-12-16T19:47:17.720Z,79.97
2018-12-16T19:49:48.444Z,82.83
2018-12-16T19:52:20.126Z,80.00
2018-12-16T19:55:00.001Z,93.80
2018-12-16T19:57:38.279Z,83.67
2018-12-16T20:01:35.684Z,87.73
2018-12-16T20:04:11.304Z,73.83
2018-12-16T20:06:58.598Z,86.10
2018-12-16T20:09:29.307Z,82.37
2018-12-16T20:12:00.019Z,92.00
2018-12-16T20:14:30.689Z,103.47
2018-12-16T20:17:01.424Z,103.50
2018-12-16T20:19:32.113Z,66.50
2018-12-16T20:22:02.825Z,84.53
2018-12-16T20:24:33.581Z,83.43
2018-12-16T20:27:04.418Z,80.27
2018-12-16T20:29:36.652Z,89.17
2018-12-16T20:32:07.428Z,83.73
2018-12-16T20:34:38.133Z,51.37
2018-12-16T20:37:09.166Z,48.37
2018-12-16T20:39:39.876Z,53.10
2018-12-16T20:42:10.573Z,53.43
2018-12-16T20:44:48.561Z,72.93
2018-12-16T20:47:19.292Z,59.53
2018-12-16T20:49:54.359Z,47.03
2018-12-16T20:52:25.173Z,52.53
2018-12-16T20:54:55.903Z,50.17
2018-12-16T20:57:26.656Z,67.77
2018-12-16T20:59:57.341Z,48.90
2018-12-16T21:02:28.119Z,64.83
2018-12-16T21:04:58.897Z,48.83
2018-12-16T21:07:29.638Z,60.73
2018-12-16T21:10:01.366Z,58.87
2018-12-16T21:12:37.961Z,46.97
2018-12-16T21:15:13.522Z,33.93
2018-12-16T21:56:51.588Z,32.10
2018-12-16T21:59:22.282Z,32.80
2018-12-16T22:01:52.935Z,48.10
2018-12-16T22:04:23.614Z,27.63
2018-12-16T22:06:54.628Z,34.60
2018-12-16T22:09:25.424Z,40.43
2018-12-16T22:11:56.210Z,30.10
2018-12-16T22:14:27.019Z,38.23
2018-12-16T22:16:57.739Z,34.70
2018-12-16T22:19:28.470Z,42.10
2018-12-16T22:21:59.160Z,36.83
2018-12-16T22:24:29.817Z,38.23
2018-12-16T22:27:01.008Z,38.97
2018-12-16T22:29:31.758Z,39.23
2018-12-16T22:32:02.522Z,2.70
2018-12-16T22:34:35.255Z,1.83
2018-12-16T22:37:05.982Z,1.10
2018-12-16T22:39:36.661Z,1.30
2018-12-16T22:42:07.685Z,0.80
2018-12-16T22:44:38.318Z,0.80
2018-12-16T22:47:08.962Z,1.07
2018-12-16T22:49:43.672Z,0.93
2018-12-16T22:52:14.346Z,0.90
2018-12-16T22:54:45.095Z,1.00
2018-12-16T22:57:15.755Z,1.00
2018-12-16T22:59:46.418Z,1.07
2018-12-16T23:02:17.111Z,1.03
2018-12-16T23:04:47.836Z,1.17
2018-12-16T23:07:21.375Z,1.20
2018-12-16T23:09:52.320Z,1.27
2018-12-16T23:12:23.070Z,1.10
2018-12-16T23:14:55.691Z,1.90
2018-12-16T23:17:26.360Z,1.30
2018-12-16T23:20:01.751Z,1.70
2018-12-16T23:22:32.365Z,2.00
2018-12-16T23:25:03.074Z,1.87
2018-12-16T23:27:34.688Z,1.93
2018-12-16T23:30:06.041Z,2.27
2018-12-16T23:32:36.748Z,2.07
2018-12-16T23:35:07.527Z,2.27
2018-12-16T23:37:38.136Z,2.60
2018-12-16T23:40:10.073Z,2.13
2018-12-16T23:42:40.673Z,2.37
2018-12-16T23:45:11.656Z,2.40
2018-12-16T23:47:42.382Z,2.47
